createdAt,value
2023-01-18T00:01:05.221Z,13.50
2023-01-18T00:03:35.261Z,14.45
2023-01-18T00:06:03.149Z,16.45
2023-01-18T00:08:31.804Z,16.25
2023-01-18T00:11:09.786Z,17.40
2023-01-18T00:13:36.876Z,19.08
2023-01-18T00:16:18.482Z,12.50
2023-01-18T00:18:51.420Z,10.95
2023-01-18T00:21:18.270Z,11.18
2023-01-18T00:23:45.248Z,10.52
2023-01-18T00:26:15.057Z,9.43
2023-01-18T00:28:42.738Z,9.23
2023-01-18T00:31:20.603Z,10.93
2023-01-18T00:33:49.203Z,11.93
2023-01-18T00:36:16.964Z,11.93
2023-01-18T00:38:44.041Z,11.15
2023-01-18T00:41:10.863Z,11.07
2023-01-18T00:43:40.457Z,12.43
2023-01-18T00:46:16.124Z,11.20
2023-01-18T00:48:44.217Z,10.07
2023-01-18T00:51:17.727Z,10.88
2023-01-18T00:53:45.071Z,11.50
2023-01-18T00:56:15.585Z,11.65
2023-01-18T00:58:42.432Z,12.90
2023-01-18T01:01:10.124Z,9.75
2023-01-18T01:03:59.706Z,11.68
2023-01-18T01:06:44.500Z,12.07
2023-01-18T01:09:12.295Z,11.23
2023-01-18T01:11:39.066Z,12.93
2023-01-18T01:14:24.292Z,17.23
2023-01-18T01:17:09.651Z,13.25
2023-01-18T01:19:54.715Z,12.10
2023-01-18T01:22:40.239Z,12.55
2023-01-18T01:25:25.477Z,13.82
2023-01-18T01:27:52.516Z,14.10
2023-01-18T01:30:19.261Z,11.15
2023-01-18T01:32:45.963Z,11.65
2023-01-18T01:35:12.736Z,12.93
2023-01-18T01:37:39.463Z,12.40
2023-01-18T01:40:06.675Z,11.23
2023-01-18T01:42:33.414Z,12.60
2023-01-18T01:45:00.156Z,9.90
2023-01-18T01:47:33.102Z,10.68
2023-01-18T01:50:25.912Z,11.52
2023-01-18T01:52:52.846Z,12.48
2023-01-18T01:55:24.832Z,11.23
2023-01-18T01:58:12.836Z,10.90
2023-01-18T02:00:39.643Z,10.95
2023-01-18T02:03:09.347Z,12.90
2023-01-18T02:05:48.559Z,11.05
2023-01-18T02:08:22.309Z,15.98
2023-01-18T02:10:50.055Z,12.07
2023-01-18T02:13:17.017Z,14.02
2023-01-18T02:16:05.635Z,14.82
2023-01-18T02:18:49.927Z,11.73
2023-01-18T02:21:18.796Z,12.38
2023-01-18T02:24:26.380Z,11.98
2023-01-18T02:27:04.273Z,11.07
2023-01-18T02:29:38.946Z,11.30
2023-01-18T02:32:44.542Z,13.48
2023-01-18T02:35:14.978Z,16.42
2023-01-18T02:37:59.625Z,10.90
2023-01-18T02:40:34.148Z,13.90
2023-01-18T02:43:21.103Z,10.57
2023-01-18T02:46:08.262Z,14.98
2023-01-18T02:48:40.313Z,13.90
2023-01-18T02:51:07.561Z,11.48
2023-01-18T02:53:40.316Z,12.55
2023-01-18T02:56:14.309Z,13.05
2023-01-18T02:58:46.037Z,11.65
2023-01-18T03:01:15.434Z,13.75
2023-01-18T03:03:44.350Z,8.38
2023-01-18T03:06:11.094Z,11.60
2023-01-18T03:08:41.898Z,14.35
2023-01-18T03:11:19.000Z,12.93
2023-01-18T03:14:27.525Z,10.93
2023-01-18T03:17:19.284Z,11.55
2023-01-18T03:20:07.148Z,12.45
2023-01-18T03:22:55.292Z,12.60
2023-01-18T03:25:34.363Z,15.38
2023-01-18T03:28:33.522Z,11.40
2023-01-18T03:31:20.927Z,11.45
2023-01-18T03:33:58.321Z,14.40
2023-01-18T03:36:32.148Z,9.07
2023-01-18T03:39:11.722Z,9.43
2023-01-18T03:41:45.207Z,13.30
2023-01-18T03:44:18.572Z,10.48
2023-01-18T03:46:45.388Z,10.40
2023-01-18T03:49:12.664Z,10.70
2023-01-18T03:52:07.613Z,13.10
2023-01-18T03:54:56.595Z,11.73
2023-01-18T03:57:39.008Z,9.80
2023-01-18T04:00:08.351Z,9.43
2023-01-18T04:02:39.343Z,13.32
2023-01-18T04:05:06.937Z,12.43
2023-01-18T04:07:33.763Z,11.68
2023-01-18T04:10:00.718Z,12.50
2023-01-18T04:12:27.814Z,13.48
2023-01-18T04:14:57.162Z,14.18
2023-01-18T04:17:23.906Z,14.10
2023-01-18T04:19:50.664Z,16.98
2023-01-18T04:22:17.424Z,16.10
2023-01-18T04:24:44.337Z,17.20
2023-01-18T04:27:11.770Z,22.45
2023-01-18T04:29:38.636Z,21.77
2023-01-18T04:32:05.801Z,23.52
2023-01-18T04:34:33.187Z,28.67
2023-01-18T04:36:59.926Z,20.23
2023-01-18T04:39:26.705Z,16.08
2023-01-18T04:41:53.985Z,13.27
2023-01-18T04:44:21.513Z,14.18
2023-01-18T04:46:49.044Z,17.33
2023-01-18T04:49:17.376Z,15.10
2023-01-18T04:51:45.552Z,13.48
2023-01-18T04:54:14.378Z,11.52
2023-01-18T04:56:41.132Z,13.63
2023-01-18T04:59:08.032Z,20.02
2023-01-18T05:01:35.684Z,12.48
2023-01-18T05:04:03.343Z,12.48
2023-01-18T05:06:30.155Z,11.77
2023-01-18T05:08:56.885Z,9.13
2023-01-18T05:11:23.697Z,10.55
2023-01-18T05:13:50.729Z,10.35
2023-01-18T05:16:22.601Z,10.45
2023-01-18T05:18:49.983Z,10.77
2023-01-18T05:21:17.139Z,8.77
2023-01-18T05:23:43.986Z,10.10
2023-01-18T05:26:17.292Z,6.32
2023-01-18T05:28:44.665Z,7.80
2023-01-18T05:31:11.811Z,7.75
2023-01-18T05:33:38.663Z,8.73
2023-01-18T05:36:05.961Z,11.80
2023-01-18T05:38:32.746Z,10.68
2023-01-18T05:40:59.519Z,10.93
2023-01-18T05:43:27.682Z,9.98
2023-01-18T05:45:54.728Z,11.43
2023-01-18T05:48:21.918Z,11.10
2023-01-18T05:50:49.100Z,11.10
2023-01-18T05:53:20.710Z,10.90
2023-01-18T05:55:58.518Z,7.55
2023-01-18T05:58:26.010Z,9.77
2023-01-18T06:00:53.073Z,9.20
2023-01-18T06:03:20.207Z,11.30
2023-01-18T06:05:48.137Z,8.60
2023-01-18T06:08:15.612Z,7.57
2023-01-18T06:10:42.366Z,10.68
2023-01-18T06:13:09.359Z,7.85
2023-01-18T06:15:36.565Z,10.75
2023-01-18T06:18:03.308Z,7.88
2023-01-18T06:20:30.529Z,9.48
2023-01-18T06:22:58.448Z,10.18
2023-01-18T06:25:25.793Z,9.40
2023-01-18T06:27:52.562Z,11.35
2023-01-18T06:30:19.685Z,12.75
2023-01-18T06:32:48.421Z,10.77
2023-01-18T06:35:15.358Z,13.57
2023-01-18T06:37:42.171Z,12.35
2023-01-18T06:40:09.584Z,10.45
2023-01-18T06:42:36.418Z,13.60
2023-01-18T06:45:03.550Z,12.32
2023-01-18T06:47:30.301Z,12.80
2023-01-18T06:49:57.078Z,16.00
2023-01-18T06:52:23.832Z,12.88
2023-01-18T06:54:50.569Z,14.75
2023-01-18T06:57:17.348Z,16.25
2023-01-18T06:59:44.070Z,15.68
2023-01-18T07:02:14.793Z,16.48
2023-01-18T07:04:44.165Z,12.73
2023-01-18T07:07:11.624Z,10.10
2023-01-18T07:09:38.355Z,15.68
2023-01-18T07:12:05.369Z,10.25
2023-01-18T07:14:32.104Z,12.82
2023-01-18T07:16:58.812Z,14.68
2023-01-18T07:19:25.627Z,9.10
2023-01-18T07:21:53.761Z,10.45
2023-01-18T07:24:20.566Z,11.48
2023-01-18T07:26:47.396Z,13.95
2023-01-18T07:29:14.239Z,11.50
2023-01-18T07:31:41.088Z,12.23
2023-01-18T07:34:09.314Z,11.85
2023-01-18T07:36:38.584Z,14.35
2023-01-18T07:39:06.507Z,8.37
2023-01-18T07:41:33.385Z,10.65
2023-01-18T07:44:00.899Z,13.63
2023-01-18T07:46:28.016Z,9.73
2023-01-18T07:48:54.840Z,9.50
2023-01-18T07:51:24.803Z,11.07
2023-01-18T07:53:55.269Z,11.98
2023-01-18T07:56:23.637Z,11.52
2023-01-18T07:58:50.511Z,13.15
2023-01-18T08:01:19.345Z,13.73
2023-01-18T08:03:47.916Z,9.50
2023-01-18T08:06:18.514Z,13.63
2023-01-18T08:08:45.758Z,9.13
2023-01-18T08:11:12.688Z,12.32
2023-01-18T08:13:39.521Z,10.13
2023-01-18T08:16:08.210Z,9.27
2023-01-18T08:18:35.283Z,10.75
2023-01-18T08:21:02.111Z,11.50
2023-01-18T08:23:29.310Z,11.48
2023-01-18T08:25:59.945Z,11.13
2023-01-18T08:28:26.730Z,11.23
2023-01-18T08:30:53.518Z,17.20
2023-01-18T08:33:20.271Z,11.45
2023-01-18T08:35:47.993Z,8.77
2023-01-18T08:38:15.980Z,11.38
2023-01-18T08:40:43.063Z,12.48
2023-01-18T08:43:11.704Z,16.13
2023-01-18T08:45:38.447Z,9.75
2023-01-18T08:48:07.629Z,13.27
2023-01-18T08:50:35.130Z,12.00
2023-01-18T08:53:02.816Z,9.50
2023-01-18T08:55:30.406Z,10.18
2023-01-18T08:57:57.943Z,8.63
2023-01-18T09:00:28.352Z,9.98
2023-01-18T09:02:55.352Z,10.80
2023-01-18T09:05:22.885Z,7.65
2023-01-18T09:07:50.803Z,10.43
2023-01-18T09:10:17.779Z,7.90
2023-01-18T09:12:44.559Z,10.60
2023-01-18T09:15:11.347Z,12.45
2023-01-18T09:17:38.153Z,11.10
2023-01-18T09:20:09.958Z,7.90
2023-01-18T09:22:37.551Z,6.57
2023-01-18T09:25:05.868Z,13.25
2023-01-18T09:27:33.031Z,8.98
2023-01-18T09:30:00.176Z,8.45
2023-01-18T09:32:27.485Z,11.18
2023-01-18T09:34:54.901Z,7.45
2023-01-18T09:37:22.066Z,8.98
2023-01-18T09:39:52.759Z,13.48
2023-01-18T09:42:25.500Z,6.35
2023-01-18T09:44:55.729Z,5.85
2023-01-18T09:47:24.594Z,5.22
2023-01-18T09:49:59.936Z,8.63
2023-01-18T09:52:32.848Z,5.32
2023-01-18T09:55:28.776Z,5.13
2023-01-18T09:58:01.509Z,7.60
2023-01-18T10:00:31.281Z,5.63
2023-01-18T10:03:08.453Z,5.22
2023-01-18T10:05:37.922Z,5.13
2023-01-18T10:08:17.465Z,5.75
2023-01-18T10:10:56.248Z,6.60
2023-01-18T10:13:59.300Z,6.95
2023-01-18T10:16:26.277Z,5.90
2023-01-18T10:18:57.229Z,8.38
2023-01-18T10:22:03.949Z,6.30
2023-01-18T10:24:52.286Z,4.00
2023-01-18T10:27:40.431Z,5.88
2023-01-18T10:30:28.852Z,8.70
2023-01-18T10:33:03.035Z,4.28
2023-01-18T10:35:37.072Z,5.10
2023-01-18T10:38:09.873Z,7.68
2023-01-18T10:40:37.834Z,4.05
2023-01-18T10:43:10.259Z,3.72
2023-01-18T10:45:37.236Z,4.32
2023-01-18T10:48:34.017Z,4.47
2023-01-18T10:51:04.098Z,4.70
2023-01-18T10:53:33.628Z,3.20
2023-01-18T10:56:13.132Z,11.50
2023-01-18T10:58:42.716Z,4.28
2023-01-18T11:01:34.648Z,5.60
2023-01-18T11:04:07.555Z,5.55
2023-01-18T11:06:53.441Z,8.55
2023-01-18T11:09:42.924Z,5.88
2023-01-18T11:12:33.954Z,7.60
2023-01-18T11:15:16.046Z,6.65
2023-01-18T11:18:00.565Z,7.22
2023-01-18T11:20:47.797Z,4.28
2023-01-18T11:23:19.122Z,6.00
2023-01-18T11:26:19.380Z,7.03
2023-01-18T11:31:18.675Z,7.90
2023-01-18T11:33:53.959Z,6.35
2023-01-18T11:36:33.771Z,4.00
2023-01-18T11:39:22.467Z,4.97
2023-01-18T11:41:49.828Z,7.35
2023-01-18T11:44:23.782Z,7.45
2023-01-18T11:46:53.806Z,4.72
2023-01-18T11:49:31.411Z,6.55
2023-01-18T11:52:05.151Z,8.50
2023-01-18T11:54:48.491Z,3.42
2023-01-18T11:57:15.680Z,3.90
2023-01-18T11:59:46.661Z,8.15
2023-01-18T12:02:39.093Z,4.43
2023-01-18T12:05:27.066Z,9.52
2023-01-18T12:07:57.176Z,5.90
2023-01-18T12:10:26.331Z,9.98
2023-01-18T12:13:05.040Z,8.63
2023-01-18T12:15:49.942Z,6.22
2023-01-18T12:18:37.690Z,6.50
2023-01-18T12:21:12.138Z,7.97
2023-01-18T12:23:48.159Z,4.53
2023-01-18T12:26:21.050Z,6.43
2023-01-18T12:29:12.475Z,6.53
2023-01-18T12:31:51.775Z,7.80
2023-01-18T12:34:23.535Z,4.70
2023-01-18T12:37:07.124Z,5.03
2023-01-18T12:39:53.930Z,5.22
2023-01-18T12:43:01.911Z,7.18
2023-01-18T12:45:39.402Z,7.25
2023-01-18T12:48:21.395Z,6.53
2023-01-18T12:50:49.797Z,5.93
2023-01-18T12:53:28.609Z,4.82
2023-01-18T12:55:55.652Z,6.60
2023-01-18T12:58:25.037Z,5.15
2023-01-18T13:00:59.297Z,7.32
2023-01-18T13:03:30.185Z,7.97
2023-01-18T13:06:01.964Z,6.47
2023-01-18T13:08:52.418Z,8.88
2023-01-18T13:11:24.229Z,6.10
2023-01-18T13:14:02.997Z,7.85
2023-01-18T13:16:51.051Z,10.85
2023-01-18T13:19:24.641Z,8.90
2023-01-18T13:22:22.750Z,6.25
2023-01-18T13:24:55.671Z,7.75
2023-01-18T13:27:22.912Z,7.93
2023-01-18T13:29:49.781Z,10.05
2023-01-18T13:32:34.226Z,11.60
2023-01-18T13:35:19.591Z,5.63
2023-01-18T13:37:56.476Z,6.80
2023-01-18T13:40:52.653Z,4.80
2023-01-18T13:43:37.918Z,5.28
2023-01-18T13:46:07.743Z,6.45
2023-01-18T13:48:55.303Z,5.38
2023-01-18T13:51:40.308Z,10.57
2023-01-18T13:54:11.395Z,7.55
2023-01-18T13:56:39.521Z,8.93
2023-01-18T13:59:12.525Z,6.68
2023-01-18T14:01:43.778Z,4.35
2023-01-18T14:04:26.782Z,3.40
2023-01-18T14:06:55.123Z,6.10
2023-01-18T14:09:38.220Z,4.40
2023-01-18T14:12:06.074Z,5.13
2023-01-18T14:14:35.686Z,6.63
2023-01-18T14:17:18.354Z,8.73
2023-01-18T14:19:48.169Z,7.38
2023-01-18T14:23:07.257Z,9.85
2023-01-18T14:25:54.752Z,34.17
2023-01-18T14:28:48.682Z,13.13
2023-01-18T14:31:20.273Z,19.85
2023-01-18T14:33:47.121Z,7.82
2023-01-18T14:36:25.739Z,10.10
2023-01-18T14:39:16.266Z,6.45
2023-01-18T14:41:45.264Z,6.57
2023-01-18T14:44:33.774Z,7.55
2023-01-18T14:47:08.177Z,7.38
2023-01-18T14:49:46.755Z,12.70
2023-01-18T14:52:18.606Z,7.97
2023-01-18T14:54:55.607Z,9.10
2023-01-18T14:57:23.897Z,10.07
2023-01-18T14:59:57.037Z,6.20
2023-01-18T15:02:29.293Z,4.43
2023-01-18T15:05:17.050Z,8.80
2023-01-18T15:07:50.043Z,7.78
2023-01-18T15:10:18.681Z,6.60
2023-01-18T15:12:49.618Z,5.38
2023-01-18T15:15:22.633Z,12.52
2023-01-18T15:17:50.109Z,7.53
2023-01-18T15:20:17.186Z,9.80
2023-01-18T15:22:44.302Z,7.90
2023-01-18T15:25:26.943Z,9.88
2023-01-18T15:27:54.064Z,7.68
2023-01-18T15:30:23.259Z,5.43
2023-01-18T15:32:54.279Z,6.63
2023-01-18T15:35:23.942Z,5.30
2023-01-18T15:37:50.775Z,5.93
2023-01-18T15:40:17.457Z,13.15
2023-01-18T15:42:56.773Z,10.07
2023-01-18T15:45:50.056Z,14.43
2023-01-18T15:48:22.749Z,11.68
2023-01-18T15:50:55.168Z,12.30
2023-01-18T15:53:27.969Z,9.65
2023-01-18T15:56:01.784Z,11.15
2023-01-18T15:58:49.985Z,13.77
2023-01-18T16:01:28.166Z,14.05
2023-01-18T16:03:58.631Z,13.98
2023-01-18T16:06:25.943Z,10.98
2023-01-18T16:09:02.225Z,9.68
2023-01-18T16:11:56.943Z,11.95
2023-01-18T16:14:27.674Z,13.98
2023-01-18T16:17:11.195Z,22.33
2023-01-18T16:19:48.679Z,24.63
2023-01-18T16:22:26.859Z,51.83
2023-01-18T16:25:07.875Z,44.58
2023-01-18T16:27:45.636Z,42.47
2023-01-18T16:30:27.513Z,35.00
2023-01-18T16:32:54.413Z,27.42
2023-01-18T16:35:22.730Z,24.30
2023-01-18T16:37:52.784Z,25.38
2023-01-18T16:40:24.015Z,29.83
2023-01-18T16:43:04.809Z,29.42
2023-01-18T16:45:35.468Z,27.60
2023-01-18T16:48:03.012Z,37.65
2023-01-18T16:50:30.055Z,65.82
2023-01-18T16:53:00.181Z,55.38
2023-01-18T16:57:54.244Z,34.20
2023-01-18T17:00:30.770Z,31.10
2023-01-18T17:03:00.763Z,24.52
2023-01-18T17:05:30.004Z,23.00
2023-01-18T17:08:03.057Z,20.92
2023-01-18T17:10:35.758Z,20.73
2023-01-18T17:13:03.085Z,21.73
2023-01-18T17:15:32.450Z,19.10
2023-01-18T17:17:59.224Z,21.75
2023-01-18T17:20:27.182Z,24.50
2023-01-18T17:22:54.793Z,29.17
2023-01-18T17:25:22.822Z,24.08
2023-01-18T17:27:50.622Z,27.98
2023-01-18T17:30:21.164Z,24.35
2023-01-18T17:32:48.411Z,20.77
2023-01-18T17:35:17.186Z,26.27
2023-01-18T17:37:44.000Z,32.72
2023-01-18T17:40:19.659Z,42.15
2023-01-18T17:42:51.797Z,42.95
2023-01-18T17:45:18.788Z,41.28
2023-01-18T17:47:45.871Z,38.97
2023-01-18T17:50:15.482Z,34.55
2023-01-18T17:52:42.340Z,32.47
2023-01-18T17:55:13.112Z,28.77
2023-01-18T17:57:40.907Z,33.63
2023-01-18T18:00:13.821Z,36.80
2023-01-18T18:02:42.230Z,35.63
2023-01-18T18:05:09.778Z,30.63
2023-01-18T18:07:37.018Z,31.08
2023-01-18T18:10:05.418Z,37.92
2023-01-18T18:12:33.957Z,32.25
2023-01-18T18:15:01.623Z,33.00
2023-01-18T18:17:34.128Z,29.23
2023-01-18T18:20:01.269Z,34.00
2023-01-18T18:22:28.495Z,28.30
2023-01-18T18:24:56.500Z,28.35
2023-01-18T18:27:26.638Z,30.90
2023-01-18T18:29:57.935Z,38.20
2023-01-18T18:32:24.917Z,74.57
2023-01-18T18:34:51.744Z,88.78
2023-01-18T18:37:19.863Z,76.78
2023-01-18T18:39:47.590Z,74.43
2023-01-18T18:42:14.677Z,64.13
2023-01-18T18:44:41.535Z,52.92
2023-01-18T18:47:10.053Z,40.95
2023-01-18T18:49:37.065Z,28.95
2023-01-18T18:52:04.087Z,28.30
2023-01-18T18:54:31.102Z,16.98
2023-01-18T18:56:58.010Z,17.35
2023-01-18T18:59:24.890Z,15.65
2023-01-18T19:01:52.266Z,16.55
2023-01-18T19:04:19.233Z,15.23
2023-01-18T19:06:46.239Z,15.27
2023-01-18T19:09:13.272Z,17.60
2023-01-18T19:11:50.422Z,17.75
2023-01-18T19:14:21.423Z,24.45
2023-01-18T19:16:48.280Z,24.15
2023-01-18T19:19:15.182Z,36.00
2023-01-18T19:21:42.251Z,37.45
2023-01-18T19:24:09.039Z,28.30
2023-01-18T19:26:35.886Z,24.27
2023-01-18T19:29:03.006Z,18.33
2023-01-18T19:31:30.365Z,20.58
2023-01-18T19:33:58.582Z,16.27
2023-01-18T19:36:25.499Z,20.67
2023-01-18T19:38:59.270Z,14.25
2023-01-18T19:41:27.678Z,15.88
2023-01-18T19:43:54.497Z,19.73
2023-01-18T19:46:21.352Z,17.95
2023-01-18T19:48:48.362Z,18.77
2023-01-18T19:51:22.394Z,20.08
2023-01-18T19:53:54.414Z,15.55
2023-01-18T19:56:22.053Z,15.63
2023-01-18T19:58:50.401Z,25.83
2023-01-18T20:01:34.659Z,19.73
2023-01-18T20:04:03.130Z,20.85
2023-01-18T20:06:30.827Z,18.23
2023-01-18T20:08:57.677Z,21.00
2023-01-18T20:11:24.848Z,20.75
2023-01-18T20:13:51.808Z,23.40
2023-01-18T20:16:22.420Z,23.08
2023-01-18T20:18:55.128Z,18.83
2023-01-18T20:21:22.053Z,24.73
2023-01-18T20:23:49.219Z,24.13
2023-01-18T20:26:34.933Z,22.13
2023-01-18T20:29:06.300Z,17.98
2023-01-18T20:31:37.568Z,13.95
2023-01-18T20:34:05.262Z,14.93
2023-01-18T20:36:34.737Z,13.77
2023-01-18T20:39:02.285Z,15.38
2023-01-18T20:41:29.393Z,19.23
2023-01-18T20:43:56.357Z,20.40
2023-01-18T20:46:23.231Z,19.13
2023-01-18T20:48:50.121Z,16.15
2023-01-18T20:51:18.002Z,18.95
2023-01-18T20:53:45.030Z,20.98
2023-01-18T20:56:27.897Z,24.70
2023-01-18T20:58:56.008Z,27.60
2023-01-18T21:01:22.994Z,26.65
2023-01-18T21:03:54.238Z,23.95
2023-01-18T21:06:21.147Z,16.02
2023-01-18T21:08:47.952Z,17.42
2023-01-18T21:11:18.506Z,18.45
2023-01-18T21:13:45.342Z,17.20
2023-01-18T21:16:12.579Z,16.13
2023-01-18T21:18:39.417Z,15.70
2023-01-18T21:21:07.333Z,12.95
2023-01-18T21:23:39.786Z,17.00
2023-01-18T21:26:09.220Z,14.05
2023-01-18T21:28:36.359Z,18.98
2023-01-18T21:31:03.343Z,20.45
2023-01-18T21:33:30.175Z,16.95
2023-01-18T21:36:21.241Z,16.48
2023-01-18T21:38:48.245Z,15.02
2023-01-18T21:41:34.065Z,13.63
2023-01-18T21:44:19.365Z,15.35
2023-01-18T21:46:53.092Z,18.30
2023-01-18T21:52:44.028Z,17.67
2023-01-18T21:55:10.958Z,14.55
2023-01-18T21:57:38.671Z,13.98
2023-01-18T22:05:42.231Z,20.65
2023-01-18T22:08:09.894Z,17.33
2023-01-18T22:10:37.045Z,16.48
2023-01-18T22:13:04.196Z,16.42
2023-01-18T22:15:31.269Z,22.13
2023-01-18T22:17:59.018Z,15.00
2023-01-18T22:20:26.211Z,20.50
2023-01-18T22:22:54.356Z,17.75
2023-01-18T22:25:21.451Z,17.73
2023-01-18T22:27:48.792Z,16.13
